sensor_id;sensor_type;location;lat;lon;timestamp;pressure;altitude;pressure_sealevel;temperature;humidity
46756;BME280;32506;52.826;-1.192;2023-07-30T00:00:33;99974.53;;;16.43;49.33
46756;BME280;32506;52.826;-1.192;2023-07-30T00:02:58;99983.16;;;16.40;49.44
46756;BME280;32506;52.826;-1.192;2023-07-30T00:05:24;99977.19;;;16.38;49.64
46756;BME280;32506;52.826;-1.192;2023-07-30T00:07:49;99972.88;;;16.37;49.26
46756;BME280;32506;52.826;-1.192;2023-07-30T00:10:15;99974.22;;;16.34;49.49
46756;BME280;32506;52.826;-1.192;2023-07-30T00:12:40;99968.28;;;16.32;49.74
46756;BME280;32506;52.826;-1.192;2023-07-30T00:15:07;99966.66;;;16.31;49.42
46756;BME280;32506;52.826;-1.192;2023-07-30T00:17:32;99968.00;;;16.28;49.60
46756;BME280;32506;52.826;-1.192;2023-07-30T00:19:58;99968.28;;;16.27;49.44
46756;BME280;32506;52.826;-1.192;2023-07-30T00:22:23;99974.22;;;16.24;49.59
46756;BME280;32506;52.826;-1.192;2023-07-30T00:24:48;99971.78;;;16.22;49.74
46756;BME280;32506;52.826;-1.192;2023-07-30T00:27:14;99968.78;;;16.19;49.90
46756;BME280;32506;52.826;-1.192;2023-07-30T00:29:39;99967.44;;;16.16;50.02
46756;BME280;32506;52.826;-1.192;2023-07-30T00:32:05;99965.00;;;16.15;50.66
46756;BME280;32506;52.826;-1.192;2023-07-30T00:34:31;99966.34;;;16.12;50.52
46756;BME280;32506;52.826;-1.192;2023-07-30T00:36:56;99965.78;;;16.10;50.58
46756;BME280;32506;52.826;-1.192;2023-07-30T00:39:22;99959.88;;;16.08;50.56
46756;BME280;32506;52.826;-1.192;2023-07-30T00:41:47;99957.44;;;16.06;50.73
46756;BME280;32506;52.826;-1.192;2023-07-30T00:44:12;99956.88;;;16.04;50.92
46756;BME280;32506;52.826;-1.192;2023-07-30T00:46:38;99952.81;;;16.02;51.18
46756;BME280;32506;52.826;-1.192;2023-07-30T00:49:03;99960.91;;;16.02;51.27
46756;BME280;32506;52.826;-1.192;2023-07-30T00:51:31;99955.00;;;16.00;51.32
46756;BME280;32506;52.826;-1.192;2023-07-30T00:53:56;99960.88;;;15.97;51.44
46756;BME280;32506;52.826;-1.192;2023-07-30T00:56:22;99959.28;;;15.96;51.89
46756;BME280;32506;52.826;-1.192;2023-07-30T00:58:48;99960.34;;;15.94;51.85
46756;BME280;32506;52.826;-1.192;2023-07-30T01:01:15;99966.00;;;15.93;52.22
46756;BME280;32506;52.826;-1.192;2023-07-30T01:03:41;99950.91;;;15.92;51.83
46756;BME280;32506;52.826;-1.192;2023-07-30T01:06:06;99960.06;;;15.91;51.90
46756;BME280;32506;52.826;-1.192;2023-07-30T01:08:32;99955.75;;;15.90;51.88
46756;BME280;32506;52.826;-1.192;2023-07-30T01:10:58;99951.44;;;15.89;52.05
46756;BME280;32506;52.826;-1.192;2023-07-30T01:13:24;99951.97;;;15.86;51.94
46756;BME280;32506;52.826;-1.192;2023-07-30T01:15:50;99945.75;;;15.85;52.50
46756;BME280;32506;52.826;-1.192;2023-07-30T01:18:15;99953.31;;;15.83;52.27
46756;BME280;32506;52.826;-1.192;2023-07-30T01:20:41;99949.25;;;15.81;52.33
46756;BME280;32506;52.826;-1.192;2023-07-30T01:23:06;99950.31;;;15.80;52.38
46756;BME280;32506;52.826;-1.192;2023-07-30T01:25:35;99938.16;;;15.77;52.16
46756;BME280;32506;52.826;-1.192;2023-07-30T01:28:01;99949.22;;;15.75;52.80
46756;BME280;32506;52.826;-1.192;2023-07-30T01:30:41;99961.03;;;15.74;52.36
46756;BME280;32506;52.826;-1.192;2023-07-30T01:33:07;99958.88;;;15.71;52.55
46756;BME280;32506;52.826;-1.192;2023-07-30T01:35:36;99968.31;;;15.69;52.67
46756;BME280;32506;52.826;-1.192;2023-07-30T01:38:03;99957.78;;;15.67;52.67
46756;BME280;32506;52.826;-1.192;2023-07-30T01:40:31;99959.91;;;15.65;52.66
46756;BME280;32506;52.826;-1.192;2023-07-30T01:42:57;99960.19;;;15.64;52.58
46756;BME280;32506;52.826;-1.192;2023-07-30T01:45:23;99949.94;;;15.60;52.76
46756;BME280;32506;52.826;-1.192;2023-07-30T01:47:48;99960.97;;;15.59;53.24
46756;BME280;32506;52.826;-1.192;2023-07-30T01:50:14;99953.41;;;15.56;53.28
46756;BME280;32506;52.826;-1.192;2023-07-30T01:52:39;99960.69;;;15.55;53.44
46756;BME280;32506;52.826;-1.192;2023-07-30T01:55:05;99961.19;;;15.52;53.67
46756;BME280;32506;52.826;-1.192;2023-07-30T01:57:30;99961.44;;;15.51;53.78
46756;BME280;32506;52.826;-1.192;2023-07-30T01:59:56;99965.47;;;15.48;53.52
46756;BME280;32506;52.826;-1.192;2023-07-30T02:02:21;99964.09;;;15.46;53.68
46756;BME280;32506;52.826;-1.192;2023-07-30T02:04:47;99966.81;;;15.46;53.77
46756;BME280;32506;52.826;-1.192;2023-07-30T02:07:12;99970.03;;;15.42;54.26
46756;BME280;32506;52.826;-1.192;2023-07-30T02:09:38;99967.59;;;15.41;53.95
46756;BME280;32506;52.826;-1.192;2023-07-30T02:12:03;99963.00;;;15.41;53.89
46756;BME280;32506;52.826;-1.192;2023-07-30T02:14:29;99962.22;;;15.41;54.54
46756;BME280;32506;52.826;-1.192;2023-07-30T02:16:54;99963.28;;;15.40;54.26
46756;BME280;32506;52.826;-1.192;2023-07-30T02:19:20;99968.13;;;15.38;54.23
46756;BME280;32506;52.826;-1.192;2023-07-30T02:21:46;99970.56;;;15.39;54.43
46756;BME280;32506;52.826;-1.192;2023-07-30T02:24:11;99968.13;;;15.38;54.39
46756;BME280;32506;52.826;-1.192;2023-07-30T02:26:39;99968.13;;;15.38;54.30
46756;BME280;32506;52.826;-1.192;2023-07-30T02:29:05;99967.28;;;15.37;54.41
46756;BME280;32506;52.826;-1.192;2023-07-30T02:31:31;99964.06;;;15.35;54.16
46756;BME280;32506;52.826;-1.192;2023-07-30T02:33:57;99967.81;;;15.34;54.30
46756;BME280;32506;52.826;-1.192;2023-07-30T02:36:23;99973.22;;;15.34;54.41
46756;BME280;32506;52.826;-1.192;2023-07-30T02:38:48;99966.47;;;15.32;54.18
46756;BME280;32506;52.826;-1.192;2023-07-30T02:41:14;99968.34;;;15.31;54.14
46756;BME280;32506;52.826;-1.192;2023-07-30T02:43:39;99961.59;;;15.29;54.07
46756;BME280;32506;52.826;-1.192;2023-07-30T02:46:04;99981.50;;;15.27;54.05
46756;BME280;32506;52.826;-1.192;2023-07-30T02:48:32;99987.16;;;15.26;53.99
46756;BME280;32506;52.826;-1.192;2023-07-30T02:50:57;99972.34;;;15.23;53.94
46756;BME280;32506;52.826;-1.192;2023-07-30T02:53:22;99970.97;;;15.21;54.26
46756;BME280;32506;52.826;-1.192;2023-07-30T02:55:48;99964.22;;;15.18;54.05
46756;BME280;32506;52.826;-1.192;2023-07-30T02:58:13;99967.16;;;15.17;54.04
46756;BME280;32506;52.826;-1.192;2023-07-30T03:00:39;99967.44;;;15.15;54.25
46756;BME280;32506;52.826;-1.192;2023-07-30T03:03:04;99961.47;;;15.13;54.13
46756;BME280;32506;52.826;-1.192;2023-07-30T03:05:30;99962.00;;;15.10;54.11
46756;BME280;32506;52.826;-1.192;2023-07-30T03:07:55;99965.22;;;15.07;53.99
46756;BME280;32506;52.826;-1.192;2023-07-30T03:10:21;99963.59;;;15.06;54.02
46756;BME280;32506;52.826;-1.192;2023-07-30T03:12:46;99961.44;;;15.03;53.86
46756;BME280;32506;52.826;-1.192;2023-07-30T03:15:12;99958.16;;;15.01;53.74
46756;BME280;32506;52.826;-1.192;2023-07-30T03:17:37;99964.06;;;14.98;53.70
46756;BME280;32506;52.826;-1.192;2023-07-30T03:20:03;99962.44;;;14.97;53.24
46756;BME280;32506;52.826;-1.192;2023-07-30T03:22:29;99962.97;;;14.93;53.62
46756;BME280;32506;52.826;-1.192;2023-07-30T03:24:55;99962.66;;;14.90;53.68
46756;BME280;32506;52.826;-1.192;2023-07-30T03:27:20;99957.53;;;14.88;53.98
46756;BME280;32506;52.826;-1.192;2023-07-30T03:29:46;99955.38;;;14.85;54.00
46756;BME280;32506;52.826;-1.192;2023-07-30T03:32:11;99962.88;;;14.83;54.31
46756;BME280;32506;52.826;-1.192;2023-07-30T03:34:36;99963.38;;;14.80;54.33
46756;BME280;32506;52.826;-1.192;2023-07-30T03:37:02;99962.81;;;14.78;54.38
46756;BME280;32506;52.826;-1.192;2023-07-30T03:39:27;99965.78;;;14.76;54.52
46756;BME280;32506;52.826;-1.192;2023-07-30T03:41:53;99969.78;;;14.74;54.51
46756;BME280;32506;52.826;-1.192;2023-07-30T03:44:18;99974.63;;;14.72;54.77
46756;BME280;32506;52.826;-1.192;2023-07-30T03:46:44;99979.44;;;14.70;54.40
46756;BME280;32506;52.826;-1.192;2023-07-30T03:49:10;99981.56;;;14.68;54.71
46756;BME280;32506;52.826;-1.192;2023-07-30T03:51:35;99976.44;;;14.66;54.56
46756;BME280;32506;52.826;-1.192;2023-07-30T03:54:01;99976.69;;;14.65;54.85
46756;BME280;32506;52.826;-1.192;2023-07-30T03:56:26;99985.59;;;14.65;54.78
46756;BME280;32506;52.826;-1.192;2023-07-30T03:58:51;99977.97;;;14.62;55.10
46756;BME280;32506;52.826;-1.192;2023-07-30T04:01:17;99983.59;;;14.60;54.84
46756;BME280;32506;52.826;-1.192;2023-07-30T04:03:42;99975.53;;;14.60;54.81
46756;BME280;32506;52.826;-1.192;2023-07-30T04:06:08;99980.38;;;14.58;54.89
46756;BME280;32506;52.826;-1.192;2023-07-30T04:08:33;99972.53;;;14.57;54.90
46756;BME280;32506;52.826;-1.192;2023-07-30T04:10:59;99984.38;;;14.56;54.94
46756;BME280;32506;52.826;-1.192;2023-07-30T04:13:24;99990.03;;;14.54;55.01
46756;BME280;32506;52.826;-1.192;2023-07-30T04:15:50;99983.81;;;14.54;55.05
46756;BME280;32506;52.826;-1.192;2023-07-30T04:18:15;99978.69;;;14.52;55.30
46756;BME280;32506;52.826;-1.192;2023-07-30T04:20:40;99979.75;;;14.51;55.50
46756;BME280;32506;52.826;-1.192;2023-07-30T04:23:06;99986.19;;;14.50;56.01
46756;BME280;32506;52.826;-1.192;2023-07-30T04:25:31;99983.50;;;14.50;55.78
46756;BME280;32506;52.826;-1.192;2023-07-30T04:27:57;99982.69;;;14.50;55.63
46756;BME280;32506;52.826;-1.192;2023-07-30T04:30:22;99979.22;;;14.49;55.76
46756;BME280;32506;52.826;-1.192;2023-07-30T04:32:47;99985.66;;;14.48;56.13
46756;BME280;32506;52.826;-1.192;2023-07-30T04:35:13;99983.22;;;14.47;56.42
46756;BME280;32506;52.826;-1.192;2023-07-30T04:37:38;99995.03;;;14.46;56.75
46756;BME280;32506;52.826;-1.192;2023-07-30T04:40:04;99984.28;;;14.46;56.86
46756;BME280;32506;52.826;-1.192;2023-07-30T04:42:30;99990.72;;;14.44;57.08
46756;BME280;32506;52.826;-1.192;2023-07-30T04:44:55;99994.22;;;14.45;57.09
46756;BME280;32506;52.826;-1.192;2023-07-30T04:47:21;99990.72;;;14.44;57.10
46756;BME280;32506;52.826;-1.192;2023-07-30T04:49:46;99988.03;;;14.44;57.32
46756;BME280;32506;52.826;-1.192;2023-07-30T04:52:11;99992.59;;;14.44;57.26
46756;BME280;32506;52.826;-1.192;2023-07-30T04:54:37;99993.38;;;14.44;57.28
46756;BME280;32506;52.826;-1.192;2023-07-30T04:57:03;100000.66;;;14.44;57.34
46756;BME280;32506;52.826;-1.192;2023-07-30T04:59:28;100014.91;;;14.44;57.08
46756;BME280;32506;52.826;-1.192;2023-07-30T05:01:54;100004.41;;;14.43;57.23
46756;BME280;32506;52.826;-1.192;2023-07-30T05:04:19;100006.03;;;14.44;57.18
46756;BME280;32506;52.826;-1.192;2023-07-30T05:06:45;100016.78;;;14.44;57.18
46756;BME280;32506;52.826;-1.192;2023-07-30T05:09:10;100020.28;;;14.44;57.19
46756;BME280;32506;52.826;-1.192;2023-07-30T05:11:37;100017.84;;;14.43;57.18
46756;BME280;32506;52.826;-1.192;2023-07-30T05:14:03;100019.47;;;14.44;57.03
46756;BME280;32506;52.826;-1.192;2023-07-30T05:16:28;100020.28;;;14.44;57.13
46756;BME280;32506;52.826;-1.192;2023-07-30T05:18:54;100018.41;;;14.45;57.45
46756;BME280;32506;52.826;-1.192;2023-07-30T05:21:20;100023.28;;;14.48;57.76
46756;BME280;32506;52.826;-1.192;2023-07-30T05:23:45;100024.09;;;14.49;57.69
46756;BME280;32506;52.826;-1.192;2023-07-30T05:26:11;100015.75;;;14.50;58.02
46756;BME280;32506;52.826;-1.192;2023-07-30T05:28:36;100014.69;;;14.51;57.93
46756;BME280;32506;52.826;-1.192;2023-07-30T05:31:01;100017.13;;;14.53;58.04
46756;BME280;32506;52.826;-1.192;2023-07-30T05:33:27;100024.97;;;14.54;58.11
46756;BME280;32506;52.826;-1.192;2023-07-30T05:35:52;100035.47;;;14.56;58.07
46756;BME280;32506;52.826;-1.192;2023-07-30T05:38:18;100029.84;;;14.57;57.61
46756;BME280;32506;52.826;-1.192;2023-07-30T05:40:43;100026.31;;;14.57;57.79
46756;BME280;32506;52.826;-1.192;2023-07-30T05:43:09;100022.56;;;14.58;57.68
46756;BME280;32506;52.826;-1.192;2023-07-30T05:45:34;100026.91;;;14.59;57.97
46756;BME280;32506;52.826;-1.192;2023-07-30T05:48:00;100031.22;;;14.60;58.11
46756;BME280;32506;52.826;-1.192;2023-07-30T05:50:25;100030.97;;;14.62;58.29
46756;BME280;32506;52.826;-1.192;2023-07-30T05:52:51;100032.59;;;14.63;58.48
46756;BME280;32506;52.826;-1.192;2023-07-30T05:55:16;100034.22;;;14.64;58.37
46756;BME280;32506;52.826;-1.192;2023-07-30T05:57:42;100032.34;;;14.64;58.51
46756;BME280;32506;52.826;-1.192;2023-07-30T06:00:08;100034.00;;;14.65;58.47
46756;BME280;32506;52.826;-1.192;2023-07-30T06:02:33;100041.53;;;14.68;58.55
46756;BME280;32506;52.826;-1.192;2023-07-30T06:04:59;100036.97;;;14.69;58.37
46756;BME280;32506;52.826;-1.192;2023-07-30T06:07:24;100036.72;;;14.70;58.81
46756;BME280;32506;52.826;-1.192;2023-07-30T06:09:49;100039.97;;;14.72;58.60
46756;BME280;32506;52.826;-1.192;2023-07-30T06:12:15;100049.66;;;14.73;58.51
46756;BME280;32506;52.826;-1.192;2023-07-30T06:14:40;100059.91;;;14.76;58.68
46756;BME280;32506;52.826;-1.192;2023-07-30T06:17:06;100053.22;;;14.79;58.57
46756;BME280;32506;52.826;-1.192;2023-07-30T06:19:31;100059.72;;;14.83;58.22
46756;BME280;32506;52.826;-1.192;2023-07-30T06:21:57;100062.16;;;14.85;58.27
46756;BME280;32506;52.826;-1.192;2023-07-30T06:24:22;100064.31;;;14.88;58.08
46756;BME280;32506;52.826;-1.192;2023-07-30T06:26:48;100061.13;;;14.91;57.83
46756;BME280;32506;52.826;-1.192;2023-07-30T06:29:13;100059.81;;;14.93;57.88
46756;BME280;32506;52.826;-1.192;2023-07-30T06:31:39;100061.19;;;14.96;56.73
46756;BME280;32506;52.826;-1.192;2023-07-30T06:34:04;100059.63;;;15.00;56.91
46756;BME280;32506;52.826;-1.192;2023-07-30T06:36:30;100067.16;;;15.03;57.90
46756;BME280;32506;52.826;-1.192;2023-07-30T06:38:55;100073.41;;;15.09;58.36
46756;BME280;32506;52.826;-1.192;2023-07-30T06:41:21;100064.00;;;15.12;57.76
46756;BME280;32506;52.826;-1.192;2023-07-30T06:43:46;100069.72;;;15.15;57.74
46756;BME280;32506;52.826;-1.192;2023-07-30T06:46:12;100075.13;;;15.20;57.90
46756;BME280;32506;52.826;-1.192;2023-07-30T06:48:37;100070.03;;;15.24;58.73
46756;BME280;32506;52.826;-1.192;2023-07-30T06:51:06;100071.97;;;15.29;58.52
46756;BME280;32506;52.826;-1.192;2023-07-30T06:53:31;100069.34;;;15.34;58.54
46756;BME280;32506;52.826;-1.192;2023-07-30T06:55:57;100081.22;;;15.38;58.66
46756;BME280;32506;52.826;-1.192;2023-07-30T06:58:22;100076.66;;;15.43;58.61
46756;BME280;32506;52.826;-1.192;2023-07-30T07:00:48;100074.81;;;15.49;58.61
46756;BME280;32506;52.826;-1.192;2023-07-30T07:03:13;100085.63;;;15.54;58.35
46756;BME280;32506;52.826;-1.192;2023-07-30T07:05:38;100082.72;;;15.61;58.18
46756;BME280;32506;52.826;-1.192;2023-07-30T07:08:04;100083.56;;;15.67;58.06
46756;BME280;32506;52.826;-1.192;2023-07-30T07:10:29;100090.34;;;15.74;58.17
46756;BME280;32506;52.826;-1.192;2023-07-30T07:12:55;100077.50;;;15.82;58.22
46756;BME280;32506;52.826;-1.192;2023-07-30T07:15:20;100092.38;;;15.89;58.12
46756;BME280;32506;52.826;-1.192;2023-07-30T07:17:46;100087.53;;;15.97;57.98
46756;BME280;32506;52.826;-1.192;2023-07-30T07:20:11;100093.53;;;16.04;58.18
46756;BME280;32506;52.826;-1.192;2023-07-30T07:22:37;100090.34;;;16.12;58.14
46756;BME280;32506;52.826;-1.192;2023-07-30T07:25:02;100095.22;;;16.20;57.86
46756;BME280;32506;52.826;-1.192;2023-07-30T07:27:28;100091.22;;;16.28;57.62
46756;BME280;32506;52.826;-1.192;2023-07-30T07:29:53;100108.81;;;16.36;57.35
46756;BME280;32506;52.826;-1.192;2023-07-30T07:32:19;100111.00;;;16.44;57.48
46756;BME280;32506;52.826;-1.192;2023-07-30T07:34:48;100111.28;;;16.53;57.46
46756;BME280;32506;52.826;-1.192;2023-07-30T07:37:15;100120.75;;;16.60;57.05
46756;BME280;32506;52.826;-1.192;2023-07-30T07:39:42;100124.84;;;16.68;56.77
46756;BME280;32506;52.826;-1.192;2023-07-30T07:42:07;100126.22;;;16.76;56.83
46756;BME280;32506;52.826;-1.192;2023-07-30T07:44:33;100131.09;;;16.84;56.30
46756;BME280;32506;52.826;-1.192;2023-07-30T07:46:58;100119.00;;;16.92;56.39
46756;BME280;32506;52.826;-1.192;2023-07-30T07:49:24;100121.19;;;17.00;56.11
46756;BME280;32506;52.826;-1.192;2023-07-30T07:51:52;100122.53;;;17.08;56.10
46756;BME280;32506;52.826;-1.192;2023-07-30T07:54:17;100124.47;;;17.18;56.12
46756;BME280;32506;52.826;-1.192;2023-07-30T07:56:43;100132.56;;;17.28;56.46
46756;BME280;32506;52.826;-1.192;2023-07-30T07:59:08;100130.94;;;17.37;56.11
46756;BME280;32506;52.826;-1.192;2023-07-30T08:01:34;100138.25;;;17.47;55.88
46756;BME280;32506;52.826;-1.192;2023-07-30T08:03:59;100139.31;;;17.56;55.88
46756;BME280;32506;52.826;-1.192;2023-07-30T08:06:24;100137.97;;;17.64;55.28
46756;BME280;32506;52.826;-1.192;2023-07-30T08:08:50;100135.84;;;17.71;55.29
46756;BME280;32506;52.826;-1.192;2023-07-30T08:11:16;100137.16;;;17.79;55.16
46756;BME280;32506;52.826;-1.192;2023-07-30T08:13:41;100139.31;;;17.87;55.00
46756;BME280;32506;52.826;-1.192;2023-07-30T08:16:07;100138.25;;;17.93;54.72
46756;BME280;32506;52.826;-1.192;2023-07-30T08:18:32;100138.78;;;18.01;54.64
46756;BME280;32506;52.826;-1.192;2023-07-30T08:20:59;100136.63;;;18.08;54.48
46756;BME280;32506;52.826;-1.192;2023-07-30T08:23:24;100132.53;;;18.16;54.56
46756;BME280;32506;52.826;-1.192;2023-07-30T08:25:50;100128.44;;;18.23;54.48
46756;BME280;32506;52.826;-1.192;2023-07-30T08:28:15;100131.13;;;18.34;54.85
46756;BME280;32506;52.826;-1.192;2023-07-30T08:30:41;100127.28;;;18.45;54.88
46756;BME280;32506;52.826;-1.192;2023-07-30T08:33:06;100110.47;;;18.58;54.70
46756;BME280;32506;52.826;-1.192;2023-07-30T08:35:32;100115.56;;;18.70;54.94
46756;BME280;32506;52.826;-1.192;2023-07-30T08:37:57;100120.06;;;18.85;54.94
46756;BME280;32506;52.826;-1.192;2023-07-30T08:40:24;100121.09;;;19.00;54.80
46756;BME280;32506;52.826;-1.192;2023-07-30T08:42:53;100129.16;;;19.15;54.55
46756;BME280;32506;52.826;-1.192;2023-07-30T08:45:19;100126.88;;;19.27;53.94
46756;BME280;32506;52.826;-1.192;2023-07-30T08:47:46;100134.94;;;19.38;53.67
46756;BME280;32506;52.826;-1.192;2023-07-30T08:50:12;100127.25;;;19.50;53.20
46756;BME280;32506;52.826;-1.192;2023-07-30T08:52:38;100118.53;;;19.58;53.37
46756;BME280;32506;52.826;-1.192;2023-07-30T08:55:04;100132.25;;;19.67;52.25
46756;BME280;32506;52.826;-1.192;2023-07-30T08:57:30;100132.75;;;19.74;52.30
46756;BME280;32506;52.826;-1.192;2023-07-30T09:00:17;100121.56;;;19.86;51.75
46756;BME280;32506;52.826;-1.192;2023-07-30T09:02:48;100128.53;;;19.92;51.70
46756;BME280;32506;52.826;-1.192;2023-07-30T09:05:15;100128.19;;;19.99;51.26
46756;BME280;32506;52.826;-1.192;2023-07-30T09:07:40;100135.16;;;20.10;51.59
46756;BME280;32506;52.826;-1.192;2023-07-30T09:10:07;100128.78;;;20.20;51.79
46756;BME280;32506;52.826;-1.192;2023-07-30T09:12:33;100122.66;;;20.34;51.90
46756;BME280;32506;52.826;-1.192;2023-07-30T09:14:59;100135.25;;;20.49;52.28
46756;BME280;32506;52.826;-1.192;2023-07-30T09:17:25;100134.84;;;20.60;51.66
46756;BME280;32506;52.826;-1.192;2023-07-30T09:19:51;100145.00;;;20.74;51.67
46756;BME280;32506;52.826;-1.192;2023-07-30T09:22:27;100145.69;;;20.85;51.95
46756;BME280;32506;52.826;-1.192;2023-07-30T09:24:54;100147.97;;;20.97;51.14
46756;BME280;32506;52.826;-1.192;2023-07-30T09:27:23;100150.53;;;21.07;51.38
46756;BME280;32506;52.826;-1.192;2023-07-30T09:30:01;100151.72;;;21.20;49.98
46756;BME280;32506;52.826;-1.192;2023-07-30T09:32:32;100150.25;;;21.27;50.24
46756;BME280;32506;52.826;-1.192;2023-07-30T09:35:08;100155.81;;;21.36;50.31
46756;BME280;32506;52.826;-1.192;2023-07-30T09:37:40;100148.41;;;21.42;49.27
46756;BME280;32506;52.826;-1.192;2023-07-30T09:40:10;100154.03;;;21.45;48.68
46756;BME280;32506;52.826;-1.192;2023-07-30T09:42:37;100160.19;;;21.51;48.42
46756;BME280;32506;52.826;-1.192;2023-07-30T09:45:20;100168.59;;;21.55;48.50
46756;BME280;32506;52.826;-1.192;2023-07-30T09:47:50;100168.00;;;21.58;48.00
46756;BME280;32506;52.826;-1.192;2023-07-30T09:50:16;100170.44;;;21.59;47.88
46756;BME280;32506;52.826;-1.192;2023-07-30T09:52:42;100166.28;;;21.62;47.71
46756;BME280;32506;52.826;-1.192;2023-07-30T09:55:09;100162.19;;;21.65;47.80
46756;BME280;32506;52.826;-1.192;2023-07-30T09:57:35;100177.41;;;21.66;47.49
46756;BME280;32506;52.826;-1.192;2023-07-30T10:00:04;100186.06;;;21.68;47.12
46756;BME280;32506;52.826;-1.192;2023-07-30T10:02:31;100179.25;;;21.70;46.46
46756;BME280;32506;52.826;-1.192;2023-07-30T10:04:59;100192.53;;;21.72;46.68
46756;BME280;32506;52.826;-1.192;2023-07-30T10:07:26;100178.63;;;21.73;46.88
46756;BME280;32506;52.826;-1.192;2023-07-30T10:09:55;100181.84;;;21.75;46.63
46756;BME280;32506;52.826;-1.192;2023-07-30T10:12:27;100185.88;;;21.78;46.76
46756;BME280;32506;52.826;-1.192;2023-07-30T10:14:53;100182.59;;;21.81;46.86
46756;BME280;32506;52.826;-1.192;2023-07-30T10:17:19;100185.22;;;21.86;46.87
46756;BME280;32506;52.826;-1.192;2023-07-30T10:19:49;100181.59;;;21.91;47.03
46756;BME280;32506;52.826;-1.192;2023-07-30T10:24:57;100187.06;;;22.05;46.92
46756;BME280;32506;52.826;-1.192;2023-07-30T10:27:24;100185.88;;;22.11;46.51
46756;BME280;32506;52.826;-1.192;2023-07-30T10:30:08;100178.63;;;22.20;46.45
46756;BME280;32506;52.826;-1.192;2023-07-30T10:32:38;100168.44;;;22.26;46.28
46756;BME280;32506;52.826;-1.192;2023-07-30T10:35:04;100170.78;;;22.33;46.28
46756;BME280;32506;52.826;-1.192;2023-07-30T10:37:29;100176.16;;;22.38;46.23
46756;BME280;32506;52.826;-1.192;2023-07-30T10:39:55;100185.03;;;22.43;46.16
46756;BME280;32506;52.826;-1.192;2023-07-30T10:42:21;100187.97;;;22.47;46.00
46756;BME280;32506;52.826;-1.192;2023-07-30T10:44:46;100184.13;;;22.48;45.74
46756;BME280;32506;52.826;-1.192;2023-07-30T10:47:11;100178.06;;;22.51;45.26
46756;BME280;32506;52.826;-1.192;2023-07-30T10:49:41;100180.19;;;22.54;45.46
46756;BME280;32506;52.826;-1.192;2023-07-30T10:52:09;100182.59;;;22.56;45.32
46756;BME280;32506;52.826;-1.192;2023-07-30T10:54:36;100181.19;;;22.58;45.26
46756;BME280;32506;52.826;-1.192;2023-07-30T10:57:02;100174.63;;;22.59;45.30
46756;BME280;32506;52.826;-1.192;2023-07-30T10:59:34;100180.59;;;22.61;45.27
46756;BME280;32506;52.826;-1.192;2023-07-30T11:02:01;100183.00;;;22.63;44.97
46756;BME280;32506;52.826;-1.192;2023-07-30T11:04:27;100182.72;;;22.65;45.29
46756;BME280;32506;52.826;-1.192;2023-07-30T11:06:52;100175.22;;;22.70;45.37
46756;BME280;32506;52.826;-1.192;2023-07-30T11:09:26;100174.50;;;22.78;45.07
46756;BME280;32506;52.826;-1.192;2023-07-30T11:11:53;100174.09;;;22.85;44.75
46756;BME280;32506;52.826;-1.192;2023-07-30T11:14:21;100186.50;;;22.91;44.88
46756;BME280;32506;52.826;-1.192;2023-07-30T11:16:52;100171.38;;;22.99;44.20
46756;BME280;32506;52.826;-1.192;2023-07-30T11:19:18;100173.34;;;23.07;44.26
46756;BME280;32506;52.826;-1.192;2023-07-30T11:21:48;100166.91;;;23.17;43.48
46756;BME280;32506;52.826;-1.192;2023-07-30T11:24:14;100172.72;;;23.24;43.96
46756;BME280;32506;52.826;-1.192;2023-07-30T11:26:40;100173.13;;;23.32;43.35
46756;BME280;32506;52.826;-1.192;2023-07-30T11:29:16;100176.88;;;23.44;43.40
46756;BME280;32506;52.826;-1.192;2023-07-30T11:31:43;100170.19;;;23.51;43.03
46756;BME280;32506;52.826;-1.192;2023-07-30T11:34:09;100175.22;;;23.57;42.69
46756;BME280;32506;52.826;-1.192;2023-07-30T11:36:35;100184.09;;;23.63;42.07
46756;BME280;32506;52.826;-1.192;2023-07-30T11:39:00;100179.94;;;23.66;41.98
46756;BME280;32506;52.826;-1.192;2023-07-30T11:41:27;100187.78;;;23.67;41.27
46756;BME280;32506;52.826;-1.192;2023-07-30T11:43:54;100175.28;;;23.66;41.04
46756;BME280;32506;52.826;-1.192;2023-07-30T11:46:20;100179.63;;;23.67;41.62
46756;BME280;32506;52.826;-1.192;2023-07-30T11:48:49;100173.84;;;23.69;41.70
46756;BME280;32506;52.826;-1.192;2023-07-30T11:51:27;100170.50;;;23.72;42.01
46756;BME280;32506;52.826;-1.192;2023-07-30T11:53:55;100167.47;;;23.73;42.01
46756;BME280;32506;52.826;-1.192;2023-07-30T11:58:49;100187.25;;;23.79;42.03
46756;BME280;32506;52.826;-1.192;2023-07-30T12:01:18;100183.09;;;23.82;41.93
46756;BME280;32506;52.826;-1.192;2023-07-30T12:03:44;100187.44;;;23.83;41.82
46756;BME280;32506;52.826;-1.192;2023-07-30T12:06:10;100195.09;;;23.80;41.21
46756;BME280;32506;52.826;-1.192;2023-07-30T12:08:36;100203.28;;;23.80;41.51
46756;BME280;32506;52.826;-1.192;2023-07-30T12:11:03;100199.25;;;23.78;41.15
46756;BME280;32506;52.826;-1.192;2023-07-30T12:13:30;100198.78;;;23.76;41.56
46756;BME280;32506;52.826;-1.192;2023-07-30T12:15:56;100199.09;;;23.74;41.43
46756;BME280;32506;52.826;-1.192;2023-07-30T12:18:23;100196.06;;;23.76;41.59
46756;BME280;32506;52.826;-1.192;2023-07-30T12:20:50;100191.06;;;23.78;41.77
46756;BME280;32506;52.826;-1.192;2023-07-30T12:23:19;100197.34;;;23.78;41.48
46756;BME280;32506;52.826;-1.192;2023-07-30T12:25:45;100201.38;;;23.81;41.33
46756;BME280;32506;52.826;-1.192;2023-07-30T12:28:11;100201.22;;;23.86;41.47
46756;BME280;32506;52.826;-1.192;2023-07-30T12:30:37;100204.47;;;23.88;41.69
46756;BME280;32506;52.826;-1.192;2023-07-30T12:33:04;100207.41;;;23.92;41.43
46756;BME280;32506;52.826;-1.192;2023-07-30T12:35:30;100203.25;;;23.94;41.19
46756;BME280;32506;52.826;-1.192;2023-07-30T12:37:56;100195.25;;;23.98;41.41
46756;BME280;32506;52.826;-1.192;2023-07-30T12:40:22;100212.13;;;24.00;41.10
46756;BME280;32506;52.826;-1.192;2023-07-30T12:42:50;100202.50;;;24.03;41.01